Time;durP1;ratioP1;P1;durP2;ratioP2;P2;SDS_P1;SDS_P2;PMS_P1;PMS_P2;Temp;Humidity;BMP_temperature;BMP_pressure;BME280_temperature;BME280_humidity;BME280_pressure;Samples;Min_cycle;Max_cycle;Signal;HPM_P1;HPM_P2
2021/12/19 03:45:43;;;;;;;28.77;17.40;;;5.70;94.10;;;;;;5540378;24;20073;-81
2021/12/19 03:48:12;;;;;;;30.05;17.08;;;5.70;94.20;;;;;;4801239;29;20068;-80
2021/12/19 03:50:42;;;;;;;31.30;17.60;;;5.70;94.20;;;;;;4801477;29;20062;-80
2021/12/19 03:53:08;;;;;;;30.20;16.77;;;5.70;94.30;;;;;;4801886;29;20035;-80
2021/12/19 03:55:34;;;;;;;31.60;17.88;;;5.70;94.20;;;;;;4813353;29;20034;-80
2021/12/19 03:58:02;;;;;;;32.95;16.48;;;5.70;94.30;;;;;;4798321;30;20089;-80
2021/12/19 04:00:29;;;;;;;27.33;17.02;;;5.70;94.30;;;;;;4787877;30;20047;-80
2021/12/19 04:03:00;;;;;;;32.25;16.77;;;5.70;94.30;;;;;;4806055;29;20053;-80
2021/12/19 04:05:27;;;;;;;32.30;17.33;;;5.80;94.20;;;;;;4801233;29;20034;-80
2021/12/19 04:07:54;;;;;;;27.02;15.70;;;5.80;94.20;;;;;;4816059;29;20035;-80
2021/12/19 04:10:21;;;;;;;29.07;17.40;;;5.80;94.10;;;;;;4801174;29;20039;-80
2021/12/19 04:12:48;;;;;;;27.63;17.05;;;5.80;94.10;;;;;;4801234;29;20042;-80
2021/12/19 04:15:14;;;;;;;29.90;16.45;;;5.80;94.00;;;;;;4817221;29;20068;-80
2021/12/19 04:17:40;;;;;;;28.90;15.85;;;5.80;94.10;;;;;;4800614;29;20054;-80
2021/12/19 04:20:07;;;;;;;34.20;17.02;;;5.80;94.10;;;;;;4800721;29;20253;-80
2021/12/19 04:22:32;;;;;;;25.80;15.65;;;5.80;94.20;;;;;;4800946;29;20034;-80
2021/12/19 04:24:58;;;;;;;34.55;17.13;;;5.80;94.30;;;;;;4800851;29;20054;-80
2021/12/19 04:27:24;;;;;;;27.08;15.32;;;5.80;94.30;;;;;;4785801;29;20125;-80
2021/12/19 04:29:52;;;;;;;25.77;14.97;;;5.80;94.30;;;;;;4800782;29;20038;-80
2021/12/19 04:32:21;;;;;;;22.67;13.27;;;5.70;94.20;;;;;;4812745;29;20333;-80
2021/12/19 04:34:46;;;;;;;26.30;14.77;;;5.80;94.30;;;;;;4812403;29;20031;-80
2021/12/19 04:37:36;;;;;;;31.48;16.92;;;5.70;94.20;;;;;;4782703;29;20040;-80
2021/12/19 04:40:18;;;;;;;28.27;15.68;;;5.70;94.20;;;;;;4785124;30;20038;-80
2021/12/19 04:53:48;;;;;;;31.80;18.23;;;5.60;94.50;;;;;;4815634;29;20516;-80
2021/12/19 04:56:33;;;;;;;32.67;17.65;;;5.60;94.50;;;;;;4797131;29;20073;-80
2021/12/19 05:14:48;;;;;;;31.05;16.83;;;5.50;94.90;;;;;;4801485;29;20054;-80
2021/12/19 05:17:20;;;;;;;29.70;15.55;;;5.50;94.90;;;;;;4796833;29;20100;-80
2021/12/19 05:19:52;;;;;;;27.48;14.82;;;5.50;95.00;;;;;;4791237;29;20353;-80
2021/12/19 05:22:20;;;;;;;27.65;15.02;;;5.40;95.10;;;;;;4799962;29;20038;-80
2021/12/19 05:25:07;;;;;;;27.38;15.93;;;5.40;95.10;;;;;;4785232;29;20023;-80
2021/12/19 05:27:33;;;;;;;29.88;16.25;;;5.40;95.20;;;;;;4796408;29;20038;-80
2021/12/19 05:29:59;;;;;;;29.30;15.52;;;5.30;95.20;;;;;;4814905;29;20035;-80
2021/12/19 05:32:25;;;;;;;29.58;15.18;;;5.40;95.30;;;;;;4799919;29;20105;-80
2021/12/19 05:34:50;;;;;;;28.98;15.57;;;5.30;95.40;;;;;;4796361;29;20260;-80
2021/12/19 05:45:50;;;;;;;28.15;14.80;;;5.30;95.30;;;;;;4781220;30;20067;-80
2021/12/19 05:48:16;;;;;;;24.15;13.25;;;5.40;95.40;;;;;;4763611;30;20072;-80
2021/12/19 05:50:42;;;;;;;27.38;14.23;;;5.30;95.50;;;;;;4772338;30;20036;-80
2021/12/19 05:53:10;;;;;;;25.27;13.48;;;5.30;95.40;;;;;;4760043;30;20222;-80
2021/12/19 05:55:36;;;;;;;23.50;13.05;;;5.30;95.50;;;;;;4769272;30;20032;-80
2021/12/19 05:58:02;;;;;;;25.67;13.50;;;5.40;95.40;;;;;;4789951;30;20062;-80
2021/12/19 06:00:29;;;;;;;25.38;14.85;;;5.30;95.30;;;;;;4763167;30;20047;-80
2021/12/19 06:02:55;;;;;;;24.02;13.75;;;5.30;95.40;;;;;;4748526;30;20040;-80
2021/12/19 06:05:21;;;;;;;26.80;14.90;;;5.30;95.40;;;;;;4763193;30;20112;-80
2021/12/19 06:07:47;;;;;;;25.75;13.63;;;5.30;95.40;;;;;;4765783;30;20110;-80
2021/12/19 06:10:13;;;;;;;26.48;14.25;;;5.30;95.50;;;;;;4759911;30;20054;-81
2021/12/19 06:12:39;;;;;;;30.05;16.02;;;5.20;95.50;;;;;;4806867;29;20069;-80
2021/12/19 06:15:10;;;;;;;26.90;14.73;;;5.30;95.50;;;;;;4799382;29;20039;-80
2021/12/19 06:17:40;;;;;;;27.88;15.77;;;5.20;95.50;;;;;;4809022;29;20053;-80
2021/12/19 06:20:07;;;;;;;28.40;15.93;;;5.20;95.60;;;;;;4799745;29;20066;-80
2021/12/19 06:22:33;;;;;;;32.22;16.33;;;5.20;95.60;;;;;;4814326;29;20034;-80
2021/12/19 06:24:59;;;;;;;25.95;14.93;;;5.20;95.60;;;;;;4796237;30;20226;-80
2021/12/19 06:27:25;;;;;;;28.15;15.30;;;5.10;95.60;;;;;;4781429;30;20046;-80
2021/12/19 06:29:51;;;;;;;29.52;15.75;;;5.10;95.80;;;;;;4781255;30;20114;-80
2021/12/19 06:32:18;;;;;;;29.25;15.10;;;5.10;95.80;;;;;;4790443;29;20031;-80
2021/12/19 06:34:44;;;;;;;31.13;16.83;;;5.00;95.90;;;;;;4814176;29;20029;-80
2021/12/19 06:37:10;;;;;;;34.53;16.20;;;5.00;96.00;;;;;;4814256;29;20023;-80
2021/12/19 06:39:38;;;;;;;32.15;16.45;;;4.90;96.20;;;;;;4799266;29;20084;-80
2021/12/19 06:42:06;;;;;;;31.90;17.25;;;4.90;96.30;;;;;;4810981;29;20027;-80
2021/12/19 06:44:33;;;;;;;33.17;17.52;;;4.80;96.40;;;;;;4792514;30;20039;-80
2021/12/19 06:47:00;;;;;;;36.88;17.63;;;4.80;96.50;;;;;;4795850;29;20245;-80
2021/12/19 06:49:26;;;;;;;;;;;4.80;96.50;;;;;;4816816;29;20046;-81
2021/12/19 06:51:52;;;;;;;35.13;16.10;;;4.70;96.50;;;;;;4816806;29;20000;-81
2021/12/19 06:54:18;;;;;;;39.55;18.65;;;4.60;96.70;;;;;;4786883;29;20592;-81
2021/12/19 06:56:43;;;;;;;39.95;19.95;;;4.60;96.80;;;;;;4816760;29;20264;-82
2021/12/19 06:59:09;;;;;;;38.50;18.92;;;4.60;96.90;;;;;;4816407;29;20035;-80
2021/12/19 07:01:39;;;;;;;39.58;19.65;;;4.50;97.00;;;;;;4783074;29;20035;-82
2021/12/19 07:04:05;;;;;;;36.78;18.15;;;4.50;96.90;;;;;;4809761;29;20022;-81
2021/12/19 07:06:31;;;;;;;39.03;18.83;;;4.50;96.90;;;;;;4813613;29;20389;-81
2021/12/19 07:08:57;;;;;;;36.58;17.45;;;4.50;97.10;;;;;;4795598;29;20050;-81
2021/12/19 07:11:23;;;;;;;34.90;17.70;;;4.50;97.00;;;;;;4788462;30;20032;-82
2021/12/19 07:13:49;;;;;;;33.83;17.05;;;4.50;97.00;;;;;;4785831;29;20062;-82
2021/12/19 07:16:15;;;;;;;42.10;18.65;;;4.50;97.00;;;;;;4786297;29;20045;-81
2021/12/19 07:18:42;;;;;;;36.90;19.38;;;4.50;96.90;;;;;;4784938;29;20084;-80
2021/12/19 07:21:08;;;;;;;37.33;19.00;;;4.50;96.90;;;;;;4791606;30;20039;-82
2021/12/19 07:23:34;;;;;;;37.50;17.60;;;4.50;96.80;;;;;;4788693;29;20035;-80
2021/12/19 07:26:00;;;;;;;33.08;16.77;;;4.50;96.70;;;;;;4794551;29;20353;-80
2021/12/19 07:28:27;;;;;;;35.53;16.83;;;4.60;96.60;;;;;;4805661;29;20330;-82
2021/12/19 07:30:53;;;;;;;32.50;16.20;;;4.60;96.50;;;;;;4814979;29;20056;-82
2021/12/19 07:33:19;;;;;;;33.10;15.57;;;4.60;96.50;;;;;;4792888;29;20291;-81
2021/12/19 07:35:48;;;;;;;31.97;15.17;;;4.60;96.50;;;;;;4811012;29;20102;-81
2021/12/19 07:38:39;;;;;;;26.45;14.55;;;4.60;96.40;;;;;;4798512;29;20046;-81
2021/12/19 07:41:03;;;;;;;33.03;16.42;;;4.70;96.30;;;;;;4809242;29;20117;-82
2021/12/19 07:43:29;;;;;;;26.55;14.25;;;4.70;96.20;;;;;;4791587;29;20070;-81
2021/12/19 07:45:56;;;;;;;31.75;16.35;;;4.70;96.00;;;;;;4792236;29;20369;-81
2021/12/19 07:48:22;;;;;;;;;;;4.80;96.00;;;;;;4797347;29;20042;-79
2021/12/19 07:50:48;;;;;;;27.73;12.63;;;4.80;95.80;;;;;;4777341;29;20164;-79
2021/12/19 07:53:16;;;;;;;28.08;13.88;;;4.70;95.60;;;;;;4774284;29;20076;-79
2021/12/19 07:55:43;;;;;;;25.75;13.18;;;4.80;95.60;;;;;;4801507;29;20080;-80
2021/12/19 07:58:09;;;;;;;;;;;4.80;95.60;;;;;;4801027;29;20047;-80
2021/12/19 08:00:35;;;;;;;24.07;12.87;;;4.80;95.50;;;;;;4789700;29;19917;-80
2021/12/19 08:03:01;;;;;;;24.35;13.07;;;4.80;95.50;;;;;;4791772;29;20299;-80
2021/12/19 08:05:27;;;;;;;25.38;12.48;;;4.80;95.70;;;;;;4792665;29;20054;-81
2021/12/19 08:07:59;;;;;;;25.08;12.18;;;4.80;95.60;;;;;;4794792;29;20261;-80
2021/12/19 08:12:51;;;;;;;23.57;12.73;;;4.90;95.30;;;;;;4806207;29;20226;-80
2021/12/19 08:15:17;;;;;;;21.23;11.60;;;4.90;95.40;;;;;;4799820;29;20027;-80
2021/12/19 08:17:43;;;;;;;22.70;11.50;;;4.90;95.20;;;;;;4798043;29;20045;-80
2021/12/19 08:20:09;;;;;;;22.10;11.48;;;4.90;95.20;;;;;;4791157;29;20042;-80
2021/12/19 08:22:36;;;;;;;24.10;11.93;;;4.90;95.20;;;;;;4806502;29;20080;-80
2021/12/19 08:25:04;;;;;;;22.08;11.60;;;5.00;95.20;;;;;;4792877;29;20401;-80
2021/12/19 08:27:30;;;;;;;22.65;12.98;;;5.00;95.00;;;;;;4791913;29;20276;-80
2021/12/19 08:29:56;;;;;;;20.20;10.93;;;5.10;94.90;;;;;;4790216;29;20060;-80
2021/12/19 08:32:23;;;;;;;24.60;12.82;;;5.20;94.80;;;;;;4823189;29;20045;-80
2021/12/19 08:34:48;;;;;;;22.80;11.90;;;5.20;94.40;;;;;;4812388;29;20029;-80
2021/12/19 08:37:15;;;;;;;23.80;11.63;;;5.30;94.30;;;;;;4774940;29;20071;-81
2021/12/19 08:39:42;;;;;;;;;;;5.30;94.10;;;;;;4792551;29;20027;-81
2021/12/19 08:42:09;;;;;;;19.60;11.55;;;5.40;93.70;;;;;;4790639;29;19913;-81
2021/12/19 08:44:35;;;;;;;18.88;10.45;;;5.50;93.70;;;;;;4794854;29;20057;-81
2021/12/19 08:47:01;;;;;;;21.15;11.25;;;5.50;93.30;;;;;;4809396;29;20343;-81
2021/12/19 08:49:27;;;;;;;26.33;11.10;;;5.60;93.30;;;;;;4778894;29;20294;-81
2021/12/19 08:51:54;;;;;;;17.25;9.55;;;5.60;93.00;;;;;;4792539;29;20260;-81
2021/12/19 08:54:22;;;;;;;18.80;10.18;;;5.60;92.90;;;;;;4791543;29;20032;-81
2021/12/19 08:56:49;;;;;;;19.90;11.10;;;5.60;92.70;;;;;;4788337;29;20151;-81
2021/12/19 08:59:15;;;;;;;;;;;5.70;92.70;;;;;;4802307;29;20229;-81
2021/12/19 09:01:41;;;;;;;17.57;10.60;;;5.70;92.60;;;;;;4826780;29;19916;-82
2021/12/19 09:04:07;;;;;;;18.00;10.25;;;5.70;92.30;;;;;;4826025;29;20046;-81
2021/12/19 09:06:33;;;;;;;19.75;11.02;;;5.80;92.50;;;;;;4806242;29;20079;-81
2021/12/19 09:09:01;;;;;;;17.83;9.55;;;5.80;92.20;;;;;;4812104;29;20047;-81
2021/12/19 09:11:27;;;;;;;17.63;9.82;;;5.80;92.00;;;;;;4810525;29;20096;-80
2021/12/19 09:13:53;;;;;;;19.38;10.07;;;5.90;92.10;;;;;;4808141;29;20035;-81
2021/12/19 09:16:18;;;;;;;21.17;10.68;;;6.00;91.80;;;;;;4808447;29;20050;-81
2021/12/19 09:18:44;;;;;;;24.83;11.68;;;6.10;91.50;;;;;;4776369;29;20039;-81
2021/12/19 09:21:10;;;;;;;18.70;9.35;;;6.10;91.30;;;;;;4814205;29;20093;-81
2021/12/19 09:23:36;;;;;;;16.80;9.10;;;6.10;91.40;;;;;;4784223;29;20321;-81
2021/12/19 09:26:02;;;;;;;16.40;9.70;;;6.20;91.30;;;;;;4784726;29;20368;-81
2021/12/19 09:28:28;;;;;;;18.52;10.45;;;6.30;91.40;;;;;;4793707;29;20043;-81
2021/12/19 09:30:55;;;;;;;16.88;9.77;;;6.40;91.30;;;;;;4780841;29;20114;-81
2021/12/19 09:33:20;;;;;;;14.77;8.37;;;6.50;90.70;;;;;;4810339;29;20282;-81
2021/12/19 09:35:46;;;;;;;16.20;8.65;;;6.50;90.20;;;;;;4779369;29;20027;-81
2021/12/19 09:38:14;;;;;;;16.52;8.60;;;6.50;90.30;;;;;;4767469;30;20039;-80
2021/12/19 09:40:42;;;;;;;12.88;7.47;;;6.50;89.10;;;;;;4783261;29;20039;-81
2021/12/19 09:43:31;;;;;;;13.32;7.13;;;6.50;89.70;;;;;;4811656;29;20035;-80
2021/12/19 09:46:00;;;;;;;13.38;8.07;;;6.60;89.10;;;;;;4805636;29;20797;-80
2021/12/19 09:48:27;;;;;;;13.85;7.93;;;6.50;89.10;;;;;;4810703;29;20058;-80
2021/12/19 09:50:56;;;;;;;15.93;8.60;;;6.50;89.40;;;;;;4809243;29;20094;-80
2021/12/19 09:53:21;;;;;;;13.10;7.72;;;6.50;88.90;;;;;;4802777;29;20375;-80
2021/12/19 09:55:47;;;;;;;14.52;8.18;;;6.50;89.00;;;;;;4809115;29;20019;-81
2021/12/19 09:58:13;;;;;;;14.80;7.80;;;6.60;89.50;;;;;;4824641;29;20330;-82
2021/12/19 10:00:39;;;;;;;14.48;8.02;;;6.60;89.00;;;;;;4826326;29;20049;-81
2021/12/19 10:03:05;;;;;;;14.73;7.25;;;6.70;88.00;;;;;;4804758;29;20038;-81
2021/12/19 10:05:30;;;;;;;15.52;8.32;;;6.60;87.70;;;;;;4824383;29;20042;-81
2021/12/19 10:08:00;;;;;;;15.07;8.68;;;6.60;88.50;;;;;;4809786;29;20084;-82
2021/12/19 10:10:46;;;;;;;13.73;7.55;;;6.70;88.10;;;;;;4826389;29;20035;-82
2021/12/19 10:13:14;;;;;;;17.77;7.75;;;6.70;87.90;;;;;;4814197;29;20326;-81
2021/12/19 10:15:42;;;;;;;11.75;7.32;;;6.70;87.40;;;;;;4811759;29;20059;-81
2021/12/19 10:18:11;;;;;;;18.23;9.15;;;6.60;87.80;;;;;;4820050;29;20098;-81
2021/12/19 10:20:45;;;;;;;18.70;7.90;;;6.70;87.60;;;;;;4808511;29;20068;-81
2021/12/19 10:23:15;;;;;;;14.50;6.78;;;6.70;87.50;;;;;;4806219;29;20039;-80
2021/12/19 10:25:41;;;;;;;12.18;7.75;;;6.70;87.80;;;;;;4808100;29;20073;-81
2021/12/19 10:28:09;;;;;;;11.38;7.20;;;6.80;88.00;;;;;;4807657;29;20031;-81
2021/12/19 10:30:46;;;;;;;12.13;6.90;;;6.80;87.30;;;;;;4788944;30;20145;-81
2021/12/19 10:33:23;;;;;;;11.13;5.97;;;6.90;87.90;;;;;;4799296;30;20042;-81
2021/12/19 10:35:53;;;;;;;11.38;6.75;;;7.00;85.60;;;;;;4811460;29;20045;-81
2021/12/19 10:38:41;;;;;;;11.77;6.60;;;7.00;85.90;;;;;;4817159;29;20274;-81
2021/12/19 10:41:13;;;;;;;13.00;6.28;;;7.10;85.80;;;;;;4811822;29;20101;-81
2021/12/19 10:44:11;;;;;;;10.52;6.00;;;7.20;85.80;;;;;;4801737;29;20047;-81
2021/12/19 10:46:41;;;;;;;9.73;5.20;;;7.20;84.40;;;;;;4814304;29;20059;-80
2021/12/19 10:49:29;;;;;;;9.63;5.20;;;7.40;83.90;;;;;;4811871;29;20031;-81
2021/12/19 10:52:01;;;;;;;8.82;5.47;;;7.60;83.90;;;;;;4806693;29;20058;-80
2021/12/19 10:54:27;;;;;;;8.52;4.93;;;7.60;83.10;;;;;;4797997;30;20035;-80
2021/12/19 10:57:09;;;;;;;9.57;5.63;;;7.70;81.40;;;;;;4784207;30;20034;-81
2021/12/19 10:59:35;;;;;;;5.75;3.95;;;7.90;82.50;;;;;;4810350;29;20291;-81
2021/12/19 11:02:02;;;;;;;9.32;4.05;;;7.90;80.30;;;;;;4810103;29;20023;-81
2021/12/19 11:04:30;;;;;;;7.30;4.22;;;7.70;80.60;;;;;;4798951;29;20088;-81
2021/12/19 11:06:58;;;;;;;9.00;4.18;;;7.80;81.20;;;;;;4786231;29;20092;-81
2021/12/19 11:09:29;;;;;;;8.52;4.45;;;7.80;81.30;;;;;;4801828;29;20042;-81
2021/12/19 11:11:56;;;;;;;8.82;4.72;;;7.90;81.90;;;;;;4800340;29;20031;-81
2021/12/19 11:14:26;;;;;;;7.68;4.63;;;7.90;80.90;;;;;;4795191;29;20106;-81
2021/12/19 11:16:58;;;;;;;5.90;4.10;;;7.90;80.80;;;;;;4796228;29;20034;-81
2021/12/19 11:19:26;;;;;;;8.73;4.50;;;7.90;80.70;;;;;;4811610;29;20035;-81
2021/12/19 11:21:52;;;;;;;9.13;4.93;;;7.80;80.90;;;;;;4791338;29;20039;-81
2021/12/19 11:24:20;;;;;;;6.55;4.07;;;7.80;80.90;;;;;;4802214;29;20035;-81
2021/12/19 11:26:48;;;;;;;9.02;4.78;;;7.80;81.80;;;;;;4804457;29;20066;-81
2021/12/19 11:29:14;;;;;;;5.78;4.05;;;7.80;81.30;;;;;;4812847;29;20514;-81
2021/12/19 11:31:46;;;;;;;7.63;4.63;;;7.80;81.80;;;;;;4814836;29;20069;-81
2021/12/19 11:34:20;;;;;;;9.13;5.32;;;7.80;81.00;;;;;;4785870;29;20038;-81
2021/12/19 11:36:51;;;;;;;7.47;4.43;;;7.80;81.40;;;;;;4815987;29;20035;-81
2021/12/19 11:39:17;;;;;;;7.85;4.53;;;7.80;82.00;;;;;;4810238;29;20035;-81
2021/12/19 11:42:16;;;;;;;7.10;4.20;;;7.90;81.40;;;;;;4811311;29;20034;-81
2021/12/19 11:47:54;;;;;;;7.20;3.92;;;8.00;81.10;;;;;;4812802;29;20067;-81
2021/12/19 11:50:28;;;;;;;10.82;4.40;;;8.10;79.60;;;;;;4795754;29;20035;-81
2021/12/19 11:52:59;;;;;;;7.20;4.10;;;8.20;80.50;;;;;;4790616;29;20031;-81
2021/12/19 11:55:46;;;;;;;8.65;4.85;;;8.40;79.70;;;;;;4806875;29;20035;-81
2021/12/19 11:58:14;;;;;;;6.72;3.90;;;8.50;78.50;;;;;;4798813;29;20023;-81
2021/12/19 12:00:50;;;;;;;;;;;8.50;77.80;;;;;;4811585;29;20031;-81
2021/12/19 12:03:16;;;;;;;6.43;3.88;;;8.40;78.30;;;;;;4824165;29;19909;-81
2021/12/19 12:05:45;;;;;;;6.72;4.07;;;8.40;79.40;;;;;;4806433;29;20043;-81
2021/12/19 12:08:19;;;;;;;9.23;4.25;;;8.50;79.10;;;;;;4810034;29;20207;-81
2021/12/19 12:13:28;;;;;;;8.70;4.25;;;8.70;77.70;;;;;;4810591;29;20224;-81
2021/12/19 12:18:45;;;;;;;6.25;3.78;;;8.80;76.70;;;;;;4763859;30;20086;-81
2021/12/19 12:21:39;;;;;;;5.63;3.58;;;8.70;77.20;;;;;;4743467;30;20036;-81
2021/12/19 12:24:07;;;;;;;10.25;5.35;;;8.70;77.40;;;;;;4742986;30;20063;-81
2021/12/19 12:26:40;;;;;;;7.00;4.20;;;8.70;76.90;;;;;;4745484;30;20044;-81
2021/12/19 12:29:07;;;;;;;12.23;5.28;;;8.70;76.90;;;;;;4740137;30;20075;-81
2021/12/19 12:31:33;;;;;;;9.85;5.55;;;8.80;77.40;;;;;;4717494;30;20339;-81
2021/12/19 12:33:59;;;;;;;11.13;5.63;;;8.90;77.10;;;;;;4745954;30;20059;-81
2021/12/19 12:36:25;;;;;;;6.00;3.67;;;8.90;76.90;;;;;;4739006;30;20052;-81
2021/12/19 12:38:53;;;;;;;7.03;3.85;;;8.90;76.50;;;;;;4745311;30;20354;-81
2021/12/19 12:41:51;;;;;;;6.80;3.88;;;8.80;77.10;;;;;;4744270;30;20086;-81
2021/12/19 12:44:22;;;;;;;6.07;3.50;;;8.90;76.90;;;;;;4754871;30;20036;-81
2021/12/19 12:46:50;;;;;;;5.53;3.45;;;8.90;77.00;;;;;;4740241;30;20148;-81
2021/12/19 12:49:17;;;;;;;4.70;3.00;;;8.80;76.90;;;;;;4729335;30;20051;-81
2021/12/19 12:51:45;;;;;;;;;;;8.80;77.00;;;;;;4740927;30;20045;-81
2021/12/19 12:54:18;;;;;;;6.13;3.50;;;8.70;77.00;;;;;;4755243;30;19918;-81
2021/12/19 12:56:50;;;;;;;7.10;3.22;;;8.80;77.80;;;;;;4804747;29;20039;-81
2021/12/19 12:59:22;;;;;;;5.45;2.90;;;8.80;77.90;;;;;;4796799;29;20037;-81
2021/12/19 13:02:07;;;;;;;4.72;2.80;;;8.90;77.10;;;;;;4809170;29;20063;-81
2021/12/19 13:04:33;;;;;;;7.57;3.22;;;8.80;77.10;;;;;;4808111;29;20027;-81
2021/12/19 13:07:04;;;;;;;4.40;2.63;;;8.70;77.10;;;;;;4791229;29;20381;-81
2021/12/19 13:09:43;;;;;;;5.63;3.63;;;8.60;77.80;;;;;;4810745;29;20290;-81
2021/12/19 13:12:12;;;;;;;7.25;3.17;;;8.70;77.80;;;;;;4804474;29;20349;-81
2021/12/19 13:14:44;;;;;;;4.50;2.88;;;8.60;77.70;;;;;;4792145;29;20075;-81
2021/12/19 13:17:24;;;;;;;6.80;3.10;;;8.60;77.50;;;;;;4796534;29;20027;-81
2021/12/19 13:20:03;;;;;;;3.90;2.72;;;8.70;78.50;;;;;;4802606;29;20072;-82
2021/12/19 13:22:38;;;;;;;3.70;2.47;;;8.70;78.00;;;;;;4808222;29;20039;-81
2021/12/19 13:25:12;;;;;;;4.53;2.83;;;8.60;77.40;;;;;;4797573;29;20027;-80
2021/12/19 13:27:40;;;;;;;5.07;2.38;;;8.60;77.90;;;;;;4809978;29;20031;-81
2021/12/19 13:30:20;;;;;;;4.32;2.42;;;8.50;77.40;;;;;;4814091;29;20031;-81
2021/12/19 13:32:52;;;;;;;4.03;2.45;;;8.50;78.20;;;;;;4812720;29;20034;-81
2021/12/19 13:35:28;;;;;;;3.83;2.10;;;8.50;77.80;;;;;;4808411;29;20050;-80
2021/12/19 13:38:07;;;;;;;4.90;2.63;;;8.40;78.60;;;;;;4813782;29;20277;-80
2021/12/19 13:40:43;;;;;;;4.38;2.88;;;8.30;79.10;;;;;;4815341;29;20038;-80
2021/12/19 13:43:17;;;;;;;3.90;2.45;;;8.20;80.00;;;;;;4814133;29;20039;-80
2021/12/19 13:45:59;;;;;;;8.20;3.22;;;8.20;80.00;;;;;;4811851;29;20054;-80
2021/12/19 13:48:29;;;;;;;3.97;2.58;;;8.10;80.60;;;;;;4810584;29;20042;-80
2021/12/19 13:51:03;;;;;;;5.95;3.40;;;8.00;80.80;;;;;;4801988;29;20039;-80
2021/12/19 13:53:31;;;;;;;5.28;3.10;;;7.90;80.80;;;;;;4805573;29;20338;-80
2021/12/19 13:55:59;;;;;;;4.20;2.40;;;7.80;81.00;;;;;;4807865;29;20051;-79
2021/12/19 13:58:39;;;;;;;4.93;3.03;;;7.80;81.50;;;;;;4812824;29;20060;-80
2021/12/19 14:01:18;;;;;;;3.75;2.70;;;7.80;81.60;;;;;;4812655;29;20039;-80
2021/12/19 14:03:44;;;;;;;5.57;2.88;;;7.70;82.00;;;;;;4793095;29;20042;-81
2021/12/19 14:06:11;;;;;;;5.13;2.97;;;7.80;82.40;;;;;;4807570;29;20376;-80
2021/12/19 14:08:37;;;;;;;5.43;3.38;;;7.70;82.30;;;;;;4795125;29;20134;-79
2021/12/19 14:11:14;;;;;;;4.70;3.50;;;7.80;82.60;;;;;;4786808;29;20043;-80
2021/12/19 14:13:43;;;;;;;4.70;2.88;;;7.80;82.40;;;;;;4812783;29;20027;-80
2021/12/19 14:16:15;;;;;;;4.35;2.78;;;7.80;82.90;;;;;;4796727;29;20039;-80
2021/12/19 14:18:46;;;;;;;8.02;3.50;;;7.70;83.10;;;;;;4798704;29;20334;-80
2021/12/19 14:21:45;;;;;;;5.55;3.72;;;7.70;82.90;;;;;;4826052;29;20026;-80
2021/12/19 14:24:35;;;;;;;5.47;3.42;;;7.60;83.30;;;;;;4743894;30;20059;-81
2021/12/19 14:27:28;;;;;;;6.78;3.92;;;7.60;83.80;;;;;;4741091;30;20060;-81
2021/12/19 14:30:01;;;;;;;7.00;3.33;;;7.50;83.90;;;;;;4744105;30;20271;-80
2021/12/19 14:32:34;;;;;;;6.18;4.07;;;7.50;84.10;;;;;;4740188;30;20347;-81
2021/12/19 14:35:04;;;;;;;11.38;4.13;;;7.40;84.50;;;;;;4742629;30;20044;-80
2021/12/19 14:37:31;;;;;;;8.27;4.07;;;7.30;84.60;;;;;;4725604;30;20433;-81
2021/12/19 14:40:19;;;;;;;7.38;3.90;;;7.40;85.20;;;;;;4726569;30;20107;-80
2021/12/19 14:42:58;;;;;;;6.38;4.18;;;7.30;85.50;;;;;;4742791;30;20039;-80
2021/12/19 14:45:25;;;;;;;9.15;5.47;;;7.30;85.50;;;;;;4727988;30;20036;-81
2021/12/19 14:48:04;;;;;;;8.50;4.68;;;7.30;85.70;;;;;;4724375;30;20084;-81
2021/12/19 14:50:33;;;;;;;8.05;4.05;;;7.30;85.80;;;;;;4741308;30;20032;-80
2021/12/19 14:53:23;;;;;;;8.98;5.30;;;7.30;85.60;;;;;;4743331;30;20040;-80
2021/12/19 14:55:55;;;;;;;8.25;5.00;;;7.30;85.70;;;;;;4742601;30;20056;-80
2021/12/19 14:58:22;;;;;;;8.50;4.63;;;7.40;85.80;;;;;;4742740;30;20036;-80
2021/12/19 15:01:11;;;;;;;7.00;4.53;;;7.30;85.70;;;;;;4779011;29;20099;-80
2021/12/19 15:03:50;;;;;;;7.60;4.35;;;7.30;85.20;;;;;;4811356;29;20079;-80
2021/12/19 15:06:21;;;;;;;7.55;4.50;;;7.20;85.20;;;;;;4823710;29;20034;-81
2021/12/19 15:08:47;;;;;;;9.00;4.80;;;7.20;85.40;;;;;;4823120;29;20318;-80
2021/12/19 15:11:13;;;;;;;6.60;3.53;;;7.20;85.50;;;;;;4800571;29;20035;-80
2021/12/19 15:13:40;;;;;;;7.43;4.18;;;7.10;85.60;;;;;;4813613;29;20041;-80
2021/12/19 15:16:06;;;;;;;6.93;3.75;;;7.20;86.00;;;;;;4825312;29;20181;-80
2021/12/19 15:18:34;;;;;;;9.73;3.97;;;7.10;85.50;;;;;;4802847;29;20043;-80
2021/12/19 15:21:00;;;;;;;7.85;4.70;;;7.10;85.90;;;;;;4814713;29;20042;-80
2021/12/19 15:23:26;;;;;;;7.82;3.72;;;7.10;85.60;;;;;;4790524;29;20051;-80
2021/12/19 15:25:53;;;;;;;6.15;3.60;;;7.10;86.10;;;;;;4812138;29;20113;-80
2021/12/19 15:28:22;;;;;;;5.40;3.65;;;7.10;86.10;;;;;;4800466;29;20054;-80
2021/12/19 15:30:56;;;;;;;6.65;4.13;;;7.00;86.00;;;;;;4812808;29;20349;-80
2021/12/19 15:33:23;;;;;;;7.05;3.83;;;7.00;86.50;;;;;;4812238;29;20039;-81
2021/12/19 15:35:50;;;;;;;6.65;3.85;;;7.00;86.40;;;;;;4817981;29;20226;-81
2021/12/19 15:38:16;;;;;;;7.67;3.80;;;7.00;86.30;;;;;;4812795;29;20256;-80
2021/12/19 15:40:42;;;;;;;8.52;4.88;;;7.00;86.10;;;;;;4805426;29;20102;-80
2021/12/19 15:43:09;;;;;;;6.20;3.72;;;6.90;86.40;;;;;;4813760;29;20039;-80
2021/12/19 15:45:35;;;;;;;10.35;4.30;;;6.90;86.60;;;;;;4813348;29;20050;-80
2021/12/19 15:48:02;;;;;;;8.40;4.78;;;6.90;86.80;;;;;;4800228;29;20047;-80
2021/12/19 15:50:28;;;;;;;7.00;4.15;;;7.00;86.60;;;;;;4819272;29;20027;-80
2021/12/19 15:52:54;;;;;;;6.85;3.95;;;6.90;86.90;;;;;;4801256;29;20064;-80
2021/12/19 15:55:20;;;;;;;10.60;4.28;;;6.80;86.90;;;;;;4815634;29;20035;-80
2021/12/19 15:57:47;;;;;;;7.65;4.13;;;7.00;87.20;;;;;;4819445;29;20038;-79
2021/12/19 16:00:24;;;;;;;7.37;4.43;;;7.00;86.60;;;;;;4814446;29;20030;-80
2021/12/19 16:02:50;;;;;;;;;;;7.00;87.00;;;;;;4813092;29;20284;-80
2021/12/19 16:05:17;;;;;;;;;;;7.00;86.60;;;;;;4815305;29;19983;-80
2021/12/19 16:07:43;;;;;;;6.03;3.90;;;7.10;86.70;;;;;;4808005;29;19937;-80
2021/12/19 16:10:10;;;;;;;8.05;4.47;;;7.10;86.60;;;;;;4827783;29;20077;-80
2021/12/19 16:12:37;;;;;;;7.63;4.60;;;7.10;86.30;;;;;;4801872;29;20142;-80
2021/12/19 16:15:05;;;;;;;6.18;3.90;;;7.10;86.40;;;;;;4828711;29;20230;-80
2021/12/19 16:17:31;;;;;;;7.95;4.68;;;7.00;86.50;;;;;;4801884;29;20230;-80
2021/12/19 16:19:57;;;;;;;10.55;5.70;;;7.00;86.70;;;;;;4785816;29;20110;-80
2021/12/19 16:22:26;;;;;;;8.15;4.30;;;6.90;86.70;;;;;;4798201;29;20200;-80
2021/12/19 16:24:53;;;;;;;8.20;4.10;;;6.90;87.00;;;;;;4795112;29;20230;-80
2021/12/19 16:27:20;;;;;;;6.45;4.00;;;6.90;87.00;;;;;;4802231;29;20023;-80
2021/12/19 16:29:45;;;;;;;8.35;3.88;;;7.00;87.10;;;;;;4812348;29;20080;-81
2021/12/19 16:32:11;;;;;;;4.95;2.80;;;6.80;87.10;;;;;;4819530;29;20039;-81
2021/12/19 16:34:37;;;;;;;5.78;3.42;;;6.90;87.50;;;;;;4810985;29;20023;-81
2021/12/19 16:37:04;;;;;;;5.60;3.67;;;6.90;87.20;;;;;;4784724;29;20034;-80
2021/12/19 16:39:30;;;;;;;6.00;3.73;;;6.90;87.40;;;;;;4776237;29;20046;-80
2021/12/19 16:42:09;;;;;;;6.57;4.03;;;6.90;87.00;;;;;;4813552;29;20111;-80
2021/12/19 16:44:35;;;;;;;5.07;3.65;;;6.90;87.20;;;;;;4812241;29;20319;-80
2021/12/19 16:47:02;;;;;;;5.90;3.72;;;6.80;87.60;;;;;;4795349;29;20086;-80
2021/12/19 16:50:03;;;;;;;9.00;4.82;;;6.80;87.60;;;;;;4807829;29;20412;-80
2021/12/19 16:59:59;;;;;;;6.32;4.20;;;6.70;89.20;;;;;;4649806;30;20601;-82
2021/12/19 17:03:13;;;;;;;7.78;4.85;;;6.80;88.40;;;;;;4623880;30;20039;-81
2021/12/19 17:06:11;;;;;;;10.20;5.07;;;6.80;88.50;;;;;;4622620;30;20284;-81
2021/12/19 17:08:37;;;;;;;6.70;4.05;;;6.80;88.50;;;;;;4589673;31;20065;-81
2021/12/19 17:11:03;;;;;;;8.38;4.60;;;6.80;88.30;;;;;;4574959;31;20264;-81
2021/12/19 17:13:31;;;;;;;7.05;4.43;;;6.80;88.60;;;;;;4577615;31;20052;-81
2021/12/19 17:15:58;;;;;;;8.05;4.93;;;6.70;89.30;;;;;;4577876;31;20055;-81
2021/12/19 17:18:24;;;;;;;7.37;4.57;;;6.70;89.20;;;;;;4576158;31;20097;-81
2021/12/19 17:20:50;;;;;;;6.95;4.85;;;6.70;89.30;;;;;;4598081;31;20043;-80
2021/12/19 17:23:17;;;;;;;9.43;4.57;;;6.70;89.40;;;;;;4622783;31;20043;-81
2021/12/19 17:25:42;;;;;;;8.13;4.50;;;6.80;89.40;;;;;;4606653;31;20047;-82
2021/12/19 17:28:10;;;;;;;7.28;4.45;;;6.70;89.00;;;;;;4612729;31;20055;-82
2021/12/19 17:30:37;;;;;;;7.38;4.65;;;6.70;89.40;;;;;;4707058;30;20048;-81
2021/12/19 17:33:05;;;;;;;9.45;4.28;;;6.60;89.60;;;;;;4711990;30;20032;-82
2021/12/19 17:35:31;;;;;;;7.63;4.47;;;6.60;89.70;;;;;;4710653;30;20236;-81
2021/12/19 17:38:00;;;;;;;6.55;4.60;;;6.60;90.00;;;;;;4711066;30;20052;-82
2021/12/19 17:42:55;;;;;;;7.07;4.72;;;6.60;90.10;;;;;;4810312;29;20363;-82
2021/12/19 17:45:23;;;;;;;7.25;4.88;;;6.60;90.20;;;;;;4803100;29;20126;-82